Eaton, Illinois
Current Conditions -  °F | °C
As of 11:35 PM on Monday 26 Jan 2015 (Local Time) from KRSV Reporting Station
Haze Haze  
Wind Chill: 23°   Ceiling: 500
Heat Index: 29°   Visibility: 5mi
Dew Point: 28°   Wind: 6mph
Humidity: 98%   Direction: 170°S
Pressure: 29.93"   Gusts: NA
Location:  39.0131°N, 87.7657°W
Report Text: KRSV 270535Z AUTO 17005KT 5SM BR OVC005 M02/M02 A2993 RMK AO2 T10181021
Loading
Personal Weather Stations






























Interactive Weather Map New forecast layout! Learn more

10-Day Weather Forecast

Advertisements
Track Severe Weather on mobile